Somersville, Connecticut
Current Conditions -  °F | °C
As of 11:51 AM on Thursday 18 Dec 2014 (Local Time) from KBDL Reporting Station
Overcast Overcast  
Wind Chill: 33°   Ceiling: 3100
Heat Index: 40°   Visibility: 10mi
Dew Point: 26°   Wind: 13mph
Humidity: 58%   Direction: 310°NW
Pressure: 29.87"   Gusts: 25mph
Location:  41.98°N, 72.49°W
Report Text: KBDL 181651Z 31011G22KT 10SM OVC031 04/M03 A2987 RMK AO2 SLP115 T00441033
Loading
Personal Weather Stations






























Interactive Weather Map New forecast layout! Learn more

10-Day Weather Forecast

Advertisements
Track Severe Weather on mobile